sensor_id;sensor_type;location;lat;lon;timestamp;pressure;altitude;pressure_sealevel;temperature;humidity
19259;BME280;9763;48.780;9.212;2023-07-29T00:00:52;97957.59;;;21.55;79.75
19259;BME280;9763;48.780;9.212;2023-07-29T00:04:19;97952.47;;;21.53;79.84
19259;BME280;9763;48.780;9.212;2023-07-29T00:07:42;97952.78;;;21.59;79.85
19259;BME280;9763;48.780;9.212;2023-07-29T00:11:06;97942.97;;;21.59;79.84
19259;BME280;9763;48.780;9.212;2023-07-29T00:14:31;97933.78;;;21.62;80.50
19259;BME280;9763;48.780;9.212;2023-07-29T00:17:54;97924.66;;;21.64;80.01
19259;BME280;9763;48.780;9.212;2023-07-29T00:21:18;97933.72;;;21.70;80.08
19259;BME280;9763;48.780;9.212;2023-07-29T00:24:41;97938.88;;;21.71;80.32
19259;BME280;9763;48.780;9.212;2023-07-29T00:28:06;97925.59;;;21.71;79.70
19259;BME280;9763;48.780;9.212;2023-07-29T00:31:31;97926.22;;;21.73;79.83
19259;BME280;9763;48.780;9.212;2023-07-29T00:34:54;97934.00;;;21.75;79.81
19259;BME280;9763;48.780;9.212;2023-07-29T00:38:18;97940.13;;;21.75;80.22
19259;BME280;9763;48.780;9.212;2023-07-29T00:41:42;97932.00;;;21.77;80.33
19259;BME280;9763;48.780;9.212;2023-07-29T00:45:07;97925.50;;;21.79;80.14
19259;BME280;9763;48.780;9.212;2023-07-29T00:48:32;97919.00;;;21.82;80.43
19259;BME280;9763;48.780;9.212;2023-07-29T00:51:57;97928.63;;;21.83;80.08
19259;BME280;9763;48.780;9.212;2023-07-29T00:55:21;97927.97;;;21.81;80.35
19259;BME280;9763;48.780;9.212;2023-07-29T00:58:45;97926.31;;;21.80;80.33
19259;BME280;9763;48.780;9.212;2023-07-29T01:02:09;97926.31;;;21.80;80.03
19259;BME280;9763;48.780;9.212;2023-07-29T01:05:50;97926.78;;;21.83;79.89
19259;BME280;9763;48.780;9.212;2023-07-29T01:09:30;97913.69;;;21.82;80.18
19259;BME280;9763;48.780;9.212;2023-07-29T01:13:06;97912.69;;;21.83;80.07
19259;BME280;9763;48.780;9.212;2023-07-29T01:16:42;97890.47;;;21.76;79.27
19259;BME280;9763;48.780;9.212;2023-07-29T01:20:10;97901.22;;;21.82;79.56
19259;BME280;9763;48.780;9.212;2023-07-29T01:23:36;97915.34;;;21.83;79.33
19259;BME280;9763;48.780;9.212;2023-07-29T01:27:00;97913.69;;;21.82;79.72
19259;BME280;9763;48.780;9.212;2023-07-29T01:30:35;97904.88;;;21.81;79.57
19259;BME280;9763;48.780;9.212;2023-07-29T01:34:10;97907.53;;;21.81;79.56
19259;BME280;9763;48.780;9.212;2023-07-29T01:37:37;97897.09;;;21.80;79.44
19259;BME280;9763;48.780;9.212;2023-07-29T01:41:07;97903.94;;;21.89;79.32
19259;BME280;9763;48.780;9.212;2023-07-29T01:44:32;97907.91;;;21.93;79.75
19259;BME280;9763;48.780;9.212;2023-07-29T01:47:56;97900.41;;;21.97;79.53
19259;BME280;9763;48.780;9.212;2023-07-29T01:51:20;97905.34;;;22.00;79.40
19259;BME280;9763;48.780;9.212;2023-07-29T01:54:44;97901.69;;;22.01;79.82
19259;BME280;9763;48.780;9.212;2023-07-29T01:58:09;97896.84;;;22.04;79.24
19259;BME280;9763;48.780;9.212;2023-07-29T02:01:34;97890.50;;;22.05;79.81
19259;BME280;9763;48.780;9.212;2023-07-29T02:04:58;97881.72;;;22.05;79.37
19259;BME280;9763;48.780;9.212;2023-07-29T02:08:21;97883.38;;;22.06;79.31
19259;BME280;9763;48.780;9.212;2023-07-29T02:11:45;97879.25;;;22.03;79.58
19259;BME280;9763;48.780;9.212;2023-07-29T02:15:10;97875.66;;;21.96;79.10
19259;BME280;9763;48.780;9.212;2023-07-29T02:18:34;97877.66;;;21.94;79.65
19259;BME280;9763;48.780;9.212;2023-07-29T02:21:58;97879.03;;;21.90;79.21
19259;BME280;9763;48.780;9.212;2023-07-29T02:25:21;97873.25;;;21.86;79.70
19259;BME280;9763;48.780;9.212;2023-07-29T02:28:45;97868.50;;;21.82;79.14
19259;BME280;9763;48.780;9.212;2023-07-29T02:32:10;97870.06;;;21.76;79.41
19259;BME280;9763;48.780;9.212;2023-07-29T02:35:34;97860.81;;;21.72;79.31
19259;BME280;9763;48.780;9.212;2023-07-29T02:38:58;97862.84;;;21.70;79.32
19259;BME280;9763;48.780;9.212;2023-07-29T02:42:21;97876.66;;;21.66;79.45
19259;BME280;9763;48.780;9.212;2023-07-29T02:45:45;97869.88;;;21.63;79.15
19259;BME280;9763;48.780;9.212;2023-07-29T02:49:10;97855.97;;;21.61;78.96
19259;BME280;9763;48.780;9.212;2023-07-29T02:52:34;97863.09;;;21.61;79.11
19259;BME280;9763;48.780;9.212;2023-07-29T02:55:57;97859.81;;;21.59;79.20
19259;BME280;9763;48.780;9.212;2023-07-29T02:59:21;97866.31;;;21.56;79.69
19259;BME280;9763;48.780;9.212;2023-07-29T03:02:44;97865.47;;;21.55;79.37
19259;BME280;9763;48.780;9.212;2023-07-29T03:06:14;97863.81;;;21.54;79.61
19259;BME280;9763;48.780;9.212;2023-07-29T03:09:37;97856.69;;;21.55;79.30
19259;BME280;9763;48.780;9.212;2023-07-29T03:13:01;97837.19;;;21.48;79.32
19259;BME280;9763;48.780;9.212;2023-07-29T03:16:25;97843.75;;;21.52;79.32
19259;BME280;9763;48.780;9.212;2023-07-29T03:19:51;97839.44;;;21.51;79.25
19259;BME280;9763;48.780;9.212;2023-07-29T03:23:16;97835.97;;;21.50;79.47
19259;BME280;9763;48.780;9.212;2023-07-29T03:26:40;97833.13;;;21.52;79.39
19259;BME280;9763;48.780;9.212;2023-07-29T03:30:08;97825.63;;;21.55;79.70
19259;BME280;9763;48.780;9.212;2023-07-29T03:33:31;97826.47;;;21.56;79.45
19259;BME280;9763;48.780;9.212;2023-07-29T03:36:55;97821.97;;;21.56;79.01
19259;BME280;9763;48.780;9.212;2023-07-29T03:40:20;97832.41;;;21.58;79.62
19259;BME280;9763;48.780;9.212;2023-07-29T03:43:44;97833.69;;;21.62;78.87
19259;BME280;9763;48.780;9.212;2023-07-29T03:47:08;97831.66;;;21.64;78.96
19259;BME280;9763;48.780;9.212;2023-07-29T03:50:35;97831.31;;;21.67;78.91
19259;BME280;9763;48.780;9.212;2023-07-29T03:53:59;97834.63;;;21.69;79.13
19259;BME280;9763;48.780;9.212;2023-07-29T03:57:23;97839.75;;;21.71;79.29
19259;BME280;9763;48.780;9.212;2023-07-29T04:00:47;97846.72;;;21.72;79.30
19259;BME280;9763;48.780;9.212;2023-07-29T04:04:11;97843.66;;;21.75;79.30
19259;BME280;9763;48.780;9.212;2023-07-29T04:07:35;97848.06;;;21.82;79.21
19259;BME280;9763;48.780;9.212;2023-07-29T04:10:59;97851.75;;;21.81;80.21
19259;BME280;9763;48.780;9.212;2023-07-29T04:14:24;97848.16;;;21.74;79.84
19259;BME280;9763;48.780;9.212;2023-07-29T04:17:48;97838.47;;;21.67;80.52
19259;BME280;9763;48.780;9.212;2023-07-29T04:21:11;97825.28;;;21.59;80.72
19259;BME280;9763;48.780;9.212;2023-07-29T04:24:35;97828.66;;;21.52;80.92
19259;BME280;9763;48.780;9.212;2023-07-29T04:27:58;97831.94;;;21.54;81.70
19259;BME280;9763;48.780;9.212;2023-07-29T04:31:23;97839.09;;;21.54;81.36
19259;BME280;9763;48.780;9.212;2023-07-29T04:34:47;97844.94;;;21.49;81.06
19259;BME280;9763;48.780;9.212;2023-07-29T04:38:11;97838.38;;;21.45;81.50
19259;BME280;9763;48.780;9.212;2023-07-29T04:41:34;97842.38;;;21.41;81.41
19259;BME280;9763;48.780;9.212;2023-07-29T04:44:58;97841.00;;;21.31;81.09
19259;BME280;9763;48.780;9.212;2023-07-29T04:48:23;97864.38;;;21.35;82.00
19259;BME280;9763;48.780;9.212;2023-07-29T04:51:47;97866.72;;;21.30;82.14
19259;BME280;9763;48.780;9.212;2023-07-29T04:55:10;97868.56;;;21.30;82.05
19259;BME280;9763;48.780;9.212;2023-07-29T04:58:34;97882.47;;;21.32;82.25
19259;BME280;9763;48.780;9.212;2023-07-29T05:01:57;97855.72;;;21.18;81.73
19259;BME280;9763;48.780;9.212;2023-07-29T05:05:23;97872.56;;;21.26;82.07
19259;BME280;9763;48.780;9.212;2023-07-29T05:08:46;97870.28;;;21.23;82.66
19259;BME280;9763;48.780;9.212;2023-07-29T05:12:10;97862.34;;;21.23;82.74
19259;BME280;9763;48.780;9.212;2023-07-29T05:15:33;97849.41;;;21.19;82.45
19259;BME280;9763;48.780;9.212;2023-07-29T05:18:57;97825.41;;;21.13;82.82
19259;BME280;9763;48.780;9.212;2023-07-29T05:22:22;97837.63;;;21.22;82.76
19259;BME280;9763;48.780;9.212;2023-07-29T05:25:45;97844.00;;;21.28;83.03
19259;BME280;9763;48.780;9.212;2023-07-29T05:29:09;97842.66;;;21.32;83.70
19259;BME280;9763;48.780;9.212;2023-07-29T05:32:33;97848.13;;;21.30;83.84
19259;BME280;9763;48.780;9.212;2023-07-29T05:35:56;97850.78;;;21.30;83.85
19259;BME280;9763;48.780;9.212;2023-07-29T05:39:21;97824.34;;;21.22;83.74
19259;BME280;9763;48.780;9.212;2023-07-29T05:42:46;97843.78;;;21.37;84.21
19259;BME280;9763;48.780;9.212;2023-07-29T05:46:10;97844.88;;;21.43;84.83
19259;BME280;9763;48.780;9.212;2023-07-29T05:49:34;97840.94;;;21.53;84.96
19259;BME280;9763;48.780;9.212;2023-07-29T05:52:57;97836.97;;;21.64;84.71
19259;BME280;9763;48.780;9.212;2023-07-29T05:56:22;97838.00;;;21.78;85.52
19259;BME280;9763;48.780;9.212;2023-07-29T05:59:47;97825.69;;;21.91;85.37
19259;BME280;9763;48.780;9.212;2023-07-29T06:03:10;97824.31;;;22.10;85.94
19259;BME280;9763;48.780;9.212;2023-07-29T06:06:34;97826.84;;;22.33;85.94
19259;BME280;9763;48.780;9.212;2023-07-29T06:09:58;97820.69;;;22.75;86.91
19259;BME280;9763;48.780;9.212;2023-07-29T06:13:23;97823.09;;;23.41;89.33
19259;BME280;9763;48.780;9.212;2023-07-29T06:16:47;97811.44;;;23.83;89.14
19259;BME280;9763;48.780;9.212;2023-07-29T06:20:11;97824.84;;;23.96;86.63
19259;BME280;9763;48.780;9.212;2023-07-29T06:23:34;97826.28;;;23.98;85.77
19259;BME280;9763;48.780;9.212;2023-07-29T06:26:58;97834.72;;;24.09;85.56
19259;BME280;9763;48.780;9.212;2023-07-29T06:30:23;97824.50;;;24.19;84.58
19259;BME280;9763;48.780;9.212;2023-07-29T06:33:47;97835.06;;;24.27;84.33
19259;BME280;9763;48.780;9.212;2023-07-29T06:37:10;97830.31;;;24.29;83.95
19259;BME280;9763;48.780;9.212;2023-07-29T06:40:34;97837.44;;;24.22;82.41
19259;BME280;9763;48.780;9.212;2023-07-29T06:43:58;97838.81;;;24.04;81.92
19259;BME280;9763;48.780;9.212;2023-07-29T06:47:23;97847.38;;;23.93;82.20
19259;BME280;9763;48.780;9.212;2023-07-29T06:50:46;97835.88;;;23.86;82.85
19259;BME280;9763;48.780;9.212;2023-07-29T06:54:10;97830.31;;;23.81;82.77
19259;BME280;9763;48.780;9.212;2023-07-29T06:57:34;97852.25;;;23.83;82.30
19259;BME280;9763;48.780;9.212;2023-07-29T07:00:57;97851.34;;;23.69;81.48
19259;BME280;9763;48.780;9.212;2023-07-29T07:04:22;97869.69;;;23.51;81.49
19259;BME280;9763;48.780;9.212;2023-07-29T07:07:46;97866.66;;;23.33;81.86
19259;BME280;9763;48.780;9.212;2023-07-29T07:11:09;97879.88;;;23.20;81.79
19259;BME280;9763;48.780;9.212;2023-07-29T07:14:33;97881.56;;;22.99;81.39
19259;BME280;9763;48.780;9.212;2023-07-29T07:17:57;97885.22;;;22.77;81.92
19259;BME280;9763;48.780;9.212;2023-07-29T07:21:22;97887.84;;;22.56;82.21
19259;BME280;9763;48.780;9.212;2023-07-29T07:24:45;97875.59;;;22.40;82.50
19259;BME280;9763;48.780;9.212;2023-07-29T07:28:10;97872.78;;;22.27;82.99
19259;BME280;9763;48.780;9.212;2023-07-29T07:31:34;97877.41;;;22.18;83.84
19259;BME280;9763;48.780;9.212;2023-07-29T07:34:58;97883.44;;;22.12;83.73
19259;BME280;9763;48.780;9.212;2023-07-29T07:38:23;97877.28;;;22.12;84.77
19259;BME280;9763;48.780;9.212;2023-07-29T07:41:46;97881.53;;;22.21;85.35
19259;BME280;9763;48.780;9.212;2023-07-29T07:45:10;97877.72;;;22.30;85.51
19259;BME280;9763;48.780;9.212;2023-07-29T07:48:33;97869.19;;;22.35;85.64
19259;BME280;9763;48.780;9.212;2023-07-29T07:51:57;97873.31;;;22.37;85.36
19259;BME280;9763;48.780;9.212;2023-07-29T07:55:22;97875.22;;;22.43;85.97
19259;BME280;9763;48.780;9.212;2023-07-29T07:58:46;97874.09;;;22.52;85.86
19259;BME280;9763;48.780;9.212;2023-07-29T08:02:09;97864.03;;;22.69;86.10
19259;BME280;9763;48.780;9.212;2023-07-29T08:05:33;97862.41;;;22.89;86.67
19259;BME280;9763;48.780;9.212;2023-07-29T08:08:57;97867.28;;;23.07;86.04
19259;BME280;9763;48.780;9.212;2023-07-29T08:12:22;97875.16;;;23.15;86.31
19259;BME280;9763;48.780;9.212;2023-07-29T08:15:47;97890.59;;;23.26;86.53
19259;BME280;9763;48.780;9.212;2023-07-29T08:19:11;97892.78;;;23.72;88.24
19259;BME280;9763;48.780;9.212;2023-07-29T08:22:34;97894.03;;;24.58;89.37
19259;BME280;9763;48.780;9.212;2023-07-29T08:26:00;97888.34;;;24.81;87.36
19259;BME280;9763;48.780;9.212;2023-07-29T08:29:26;97890.19;;;24.81;86.57
19259;BME280;9763;48.780;9.212;2023-07-29T08:32:50;97894.28;;;24.76;85.87
19259;BME280;9763;48.780;9.212;2023-07-29T08:36:13;97892.22;;;24.72;85.05
19259;BME280;9763;48.780;9.212;2023-07-29T08:39:37;97890.38;;;24.72;85.07
19259;BME280;9763;48.780;9.212;2023-07-29T08:43:04;97892.25;;;24.85;85.35
19259;BME280;9763;48.780;9.212;2023-07-29T08:46:30;97878.72;;;25.00;85.17
19259;BME280;9763;48.780;9.212;2023-07-29T08:49:55;97890.06;;;25.22;85.99
19259;BME280;9763;48.780;9.212;2023-07-29T08:53:19;97885.13;;;25.71;86.41
19259;BME280;9763;48.780;9.212;2023-07-29T08:56:45;97889.06;;;26.71;86.72
19259;BME280;9763;48.780;9.212;2023-07-29T09:00:10;97898.84;;;27.22;85.21
19259;BME280;9763;48.780;9.212;2023-07-29T09:03:36;97899.03;;;27.77;84.59
19259;BME280;9763;48.780;9.212;2023-07-29T09:07:01;97892.66;;;28.81;84.87
19259;BME280;9763;48.780;9.212;2023-07-29T09:10:26;97892.94;;;30.02;82.96
19259;BME280;9763;48.780;9.212;2023-07-29T09:13:49;97866.53;;;30.28;79.38
19259;BME280;9763;48.780;9.212;2023-07-29T09:17:14;97879.59;;;29.96;77.97
19259;BME280;9763;48.780;9.212;2023-07-29T09:37:56;97855.03;;;33.78;64.00
19259;BME280;9763;48.780;9.212;2023-07-29T09:41:22;97864.53;;;33.85;63.29
19259;BME280;9763;48.780;9.212;2023-07-29T09:44:48;97866.31;;;33.70;64.40
19259;BME280;9763;48.780;9.212;2023-07-29T09:48:12;97873.25;;;33.50;63.96
19259;BME280;9763;48.780;9.212;2023-07-29T09:51:38;97864.72;;;33.32;64.19
19259;BME280;9763;48.780;9.212;2023-07-29T09:55:05;97856.63;;;33.37;64.11
19259;BME280;9763;48.780;9.212;2023-07-29T09:58:30;97858.28;;;33.11;63.37
19259;BME280;9763;48.780;9.212;2023-07-29T10:01:53;97857.63;;;32.99;64.40
19259;BME280;9763;48.780;9.212;2023-07-29T10:05:17;97850.69;;;33.82;64.07
19259;BME280;9763;48.780;9.212;2023-07-29T10:08:42;97846.25;;;35.61;62.47
19259;BME280;9763;48.780;9.212;2023-07-29T10:12:11;97838.44;;;37.18;58.75
19259;BME280;9763;48.780;9.212;2023-07-29T10:15:35;97824.34;;;37.68;56.97
19259;BME280;9763;48.780;9.212;2023-07-29T10:19:00;97830.28;;;37.12;57.18
19259;BME280;9763;48.780;9.212;2023-07-29T10:22:28;97828.41;;;36.69;57.59
19259;BME280;9763;48.780;9.212;2023-07-29T10:25:59;97808.28;;;36.16;56.77
19259;BME280;9763;48.780;9.212;2023-07-29T10:29:31;97828.28;;;35.86;56.99
19259;BME280;9763;48.780;9.212;2023-07-29T10:33:01;97824.78;;;35.55;56.46
19259;BME280;9763;48.780;9.212;2023-07-29T10:36:26;97837.84;;;34.87;57.74
19259;BME280;9763;48.780;9.212;2023-07-29T10:39:55;97845.66;;;34.01;60.77
19259;BME280;9763;48.780;9.212;2023-07-29T10:43:25;97845.22;;;33.30;61.16
19259;BME280;9763;48.780;9.212;2023-07-29T10:46:50;97852.13;;;32.88;62.57
19259;BME280;9763;48.780;9.212;2023-07-29T10:50:19;97857.97;;;32.53;63.03
19259;BME280;9763;48.780;9.212;2023-07-29T10:53:43;97868.03;;;32.14;64.16
19259;BME280;9763;48.780;9.212;2023-07-29T10:57:06;97852.38;;;32.87;62.67
19259;BME280;9763;48.780;9.212;2023-07-29T11:00:31;97845.19;;;34.19;60.47
19259;BME280;9763;48.780;9.212;2023-07-29T11:04:28;97841.34;;;35.08;58.45
19259;BME280;9763;48.780;9.212;2023-07-29T11:07:53;97839.44;;;35.59;58.25
19259;BME280;9763;48.780;9.212;2023-07-29T11:11:17;97839.56;;;36.18;56.41
19259;BME280;9763;48.780;9.212;2023-07-29T11:14:40;97845.31;;;36.61;55.28
19259;BME280;9763;48.780;9.212;2023-07-29T11:18:05;97832.41;;;37.21;54.26
19259;BME280;9763;48.780;9.212;2023-07-29T11:21:33;97842.88;;;37.37;53.83
19259;BME280;9763;48.780;9.212;2023-07-29T11:24:57;97837.72;;;37.02;53.46
19259;BME280;9763;48.780;9.212;2023-07-29T11:28:20;97839.03;;;36.65;54.20
19259;BME280;9763;48.780;9.212;2023-07-29T11:31:44;97842.41;;;35.78;53.65
19259;BME280;9763;48.780;9.212;2023-07-29T11:35:10;97838.88;;;34.65;55.56
19259;BME280;9763;48.780;9.212;2023-07-29T11:38:36;97810.97;;;33.50;57.37
19259;BME280;9763;48.780;9.212;2023-07-29T11:42:00;97834.72;;;33.06;58.95
19259;BME280;9763;48.780;9.212;2023-07-29T11:45:23;97825.75;;;32.74;60.48
19259;BME280;9763;48.780;9.212;2023-07-29T11:49:03;97825.63;;;32.37;61.16
19259;BME280;9763;48.780;9.212;2023-07-29T11:52:28;97832.75;;;32.21;61.44
19259;BME280;9763;48.780;9.212;2023-07-29T11:55:53;97824.31;;;32.39;60.79
19259;BME280;9763;48.780;9.212;2023-07-29T11:59:17;97839.25;;;33.01;59.28
19259;BME280;9763;48.780;9.212;2023-07-29T12:02:42;97825.25;;;33.78;58.62
19259;BME280;9763;48.780;9.212;2023-07-29T12:06:08;97834.84;;;34.93;56.07
19259;BME280;9763;48.780;9.212;2023-07-29T12:09:33;97820.16;;;34.74;55.75
19259;BME280;9763;48.780;9.212;2023-07-29T12:12:58;97817.94;;;34.56;56.95
19259;BME280;9763;48.780;9.212;2023-07-29T12:16:21;97806.63;;;34.89;56.45
19259;BME280;9763;48.780;9.212;2023-07-29T12:19:45;97807.63;;;35.64;55.11
19259;BME280;9763;48.780;9.212;2023-07-29T12:23:09;97811.44;;;35.73;54.89
19259;BME280;9763;48.780;9.212;2023-07-29T12:26:33;97815.31;;;35.22;56.05
19259;BME280;9763;48.780;9.212;2023-07-29T12:30:01;97817.44;;;34.74;56.82
19259;BME280;9763;48.780;9.212;2023-07-29T12:33:30;97806.59;;;35.60;54.34
19259;BME280;9763;48.780;9.212;2023-07-29T12:36:55;97813.47;;;36.66;52.05
19259;BME280;9763;48.780;9.212;2023-07-29T12:40:23;97789.84;;;36.96;49.31
19259;BME280;9763;48.780;9.212;2023-07-29T12:43:47;97791.63;;;37.10;49.44
19259;BME280;9763;48.780;9.212;2023-07-29T12:47:12;97791.56;;;37.49;46.52
19259;BME280;9763;48.780;9.212;2023-07-29T12:50:36;97786.47;;;36.80;44.15
19259;BME280;9763;48.780;9.212;2023-07-29T12:54:00;97773.75;;;36.21;45.93
19259;BME280;9763;48.780;9.212;2023-07-29T12:57:23;97781.22;;;35.90;46.70
19259;BME280;9763;48.780;9.212;2023-07-29T13:00:47;97795.78;;;34.99;47.40
19259;BME280;9763;48.780;9.212;2023-07-29T13:04:12;97780.81;;;34.56;48.96
19259;BME280;9763;48.780;9.212;2023-07-29T13:07:36;97785.91;;;34.27;50.00
19259;BME280;9763;48.780;9.212;2023-07-29T13:10:59;97791.41;;;34.73;50.19
19259;BME280;9763;48.780;9.212;2023-07-29T13:14:23;97790.06;;;34.91;48.18
19259;BME280;9763;48.780;9.212;2023-07-29T13:17:48;97786.00;;;34.78;48.70
19259;BME280;9763;48.780;9.212;2023-07-29T13:21:13;97785.13;;;34.37;48.23
19259;BME280;9763;48.780;9.212;2023-07-29T13:24:37;97791.81;;;33.57;50.01
19259;BME280;9763;48.780;9.212;2023-07-29T13:28:00;97798.97;;;33.31;49.92
19259;BME280;9763;48.780;9.212;2023-07-29T13:31:24;97798.09;;;32.94;51.01
19259;BME280;9763;48.780;9.212;2023-07-29T13:34:48;97787.91;;;32.74;51.98
19259;BME280;9763;48.780;9.212;2023-07-29T13:38:13;97782.63;;;32.57;51.85
19259;BME280;9763;48.780;9.212;2023-07-29T13:41:37;97797.28;;;32.17;52.78
19259;BME280;9763;48.780;9.212;2023-07-29T13:45:01;97778.88;;;31.88;53.36
19259;BME280;9763;48.780;9.212;2023-07-29T13:48:25;97790.16;;;31.84;53.60
19259;BME280;9763;48.780;9.212;2023-07-29T13:51:49;97783.63;;;31.80;53.88
19259;BME280;9763;48.780;9.212;2023-07-29T13:55:14;97789.28;;;31.79;53.55
19259;BME280;9763;48.780;9.212;2023-07-29T13:58:37;97794.50;;;31.64;53.44
19259;BME280;9763;48.780;9.212;2023-07-29T14:02:01;97803.97;;;31.49;53.60
19259;BME280;9763;48.780;9.212;2023-07-29T14:05:24;97796.03;;;31.43;53.17
19259;BME280;9763;48.780;9.212;2023-07-29T14:08:48;97798.00;;;31.47;53.45
19259;BME280;9763;48.780;9.212;2023-07-29T14:12:13;97800.50;;;31.54;53.79
19259;BME280;9763;48.780;9.212;2023-07-29T14:15:37;97809.19;;;31.56;53.89
19259;BME280;9763;48.780;9.212;2023-07-29T14:19:01;97805.59;;;31.67;53.75
19259;BME280;9763;48.780;9.212;2023-07-29T14:22:25;97815.41;;;31.73;53.85
19259;BME280;9763;48.780;9.212;2023-07-29T14:25:49;97803.28;;;31.76;53.82
19259;BME280;9763;48.780;9.212;2023-07-29T14:29:14;97812.19;;;31.76;53.58
19259;BME280;9763;48.780;9.212;2023-07-29T14:32:37;97805.59;;;31.67;53.76
19259;BME280;9763;48.780;9.212;2023-07-29T14:36:01;97805.53;;;31.45;53.98
19259;BME280;9763;48.780;9.212;2023-07-29T14:39:25;97807.38;;;31.23;53.92
19259;BME280;9763;48.780;9.212;2023-07-29T14:42:49;97807.75;;;30.98;54.34
19259;BME280;9763;48.780;9.212;2023-07-29T14:46:14;97801.69;;;30.74;54.33
19259;BME280;9763;48.780;9.212;2023-07-29T14:49:37;97802.41;;;30.70;54.70
19259;BME280;9763;48.780;9.212;2023-07-29T14:53:01;97802.25;;;30.60;54.40
19259;BME280;9763;48.780;9.212;2023-07-29T14:56:25;97773.75;;;30.35;54.97
19259;BME280;9763;48.780;9.212;2023-07-29T14:59:49;97809.78;;;30.46;55.16
19259;BME280;9763;48.780;9.212;2023-07-29T15:03:14;97802.75;;;30.45;54.55
19259;BME280;9763;48.780;9.212;2023-07-29T15:06:37;97803.53;;;30.57;54.67
19259;BME280;9763;48.780;9.212;2023-07-29T15:10:01;97807.97;;;30.63;54.74
19259;BME280;9763;48.780;9.212;2023-07-29T15:13:25;97802.00;;;30.61;54.67
19259;BME280;9763;48.780;9.212;2023-07-29T15:16:48;97804.22;;;30.64;54.67
19259;BME280;9763;48.780;9.212;2023-07-29T15:20:14;97807.72;;;30.65;54.36
19259;BME280;9763;48.780;9.212;2023-07-29T15:23:37;97807.72;;;30.65;54.64
19259;BME280;9763;48.780;9.212;2023-07-29T15:27:01;97806.91;;;30.64;54.53
19259;BME280;9763;48.780;9.212;2023-07-29T15:30:25;97809.59;;;30.64;54.92
19259;BME280;9763;48.780;9.212;2023-07-29T15:33:48;97802.91;;;30.67;55.14
19259;BME280;9763;48.780;9.212;2023-07-29T15:37:14;97797.59;;;30.72;55.33
19259;BME280;9763;48.780;9.212;2023-07-29T15:40:38;97796.31;;;30.74;55.24
19259;BME280;9763;48.780;9.212;2023-07-29T15:44:02;97800.81;;;30.86;55.76
19259;BME280;9763;48.780;9.212;2023-07-29T15:47:26;97796.31;;;30.91;55.12
19259;BME280;9763;48.780;9.212;2023-07-29T15:50:49;97802.78;;;30.90;55.44
19259;BME280;9763;48.780;9.212;2023-07-29T15:54:15;97799.16;;;30.85;55.66
19259;BME280;9763;48.780;9.212;2023-07-29T15:57:38;97800.81;;;30.86;55.47
19259;BME280;9763;48.780;9.212;2023-07-29T16:01:02;97800.69;;;30.80;55.26
19259;BME280;9763;48.780;9.212;2023-07-29T16:04:25;97797.38;;;30.73;55.00
19259;BME280;9763;48.780;9.212;2023-07-29T16:07:50;97794.25;;;30.65;55.10
19259;BME280;9763;48.780;9.212;2023-07-29T16:11:16;97796.94;;;30.65;55.13
19259;BME280;9763;48.780;9.212;2023-07-29T16:14:40;97788.13;;;30.69;55.37
19259;BME280;9763;48.780;9.212;2023-07-29T16:18:04;97785.75;;;30.73;55.35
19259;BME280;9763;48.780;9.212;2023-07-29T16:21:28;97778.00;;;30.76;55.03
19259;BME280;9763;48.780;9.212;2023-07-29T16:24:52;97769.34;;;30.74;54.69
19259;BME280;9763;48.780;9.212;2023-07-29T16:28:17;97774.66;;;30.69;54.66
19259;BME280;9763;48.780;9.212;2023-07-29T16:31:40;97777.28;;;30.64;54.64
19259;BME280;9763;48.780;9.212;2023-07-29T16:35:05;97780.44;;;30.61;53.57
19259;BME280;9763;48.780;9.212;2023-07-29T16:38:29;97783.72;;;30.63;54.28
19259;BME280;9763;48.780;9.212;2023-07-29T16:41:53;97783.25;;;30.66;53.03
19259;BME280;9763;48.780;9.212;2023-07-29T16:45:21;97781.75;;;30.59;53.01
19259;BME280;9763;48.780;9.212;2023-07-29T16:48:46;97784.81;;;30.51;53.24
19259;BME280;9763;48.780;9.212;2023-07-29T16:52:10;97779.00;;;30.42;53.66
19259;BME280;9763;48.780;9.212;2023-07-29T16:55:33;97768.53;;;30.29;53.74
19259;BME280;9763;48.780;9.212;2023-07-29T16:58:57;97760.44;;;30.29;53.61
19259;BME280;9763;48.780;9.212;2023-07-29T17:02:22;97765.59;;;30.30;53.72
19259;BME280;9763;48.780;9.212;2023-07-29T17:05:45;97772.50;;;30.26;53.62
19259;BME280;9763;48.780;9.212;2023-07-29T17:09:09;97765.88;;;30.17;53.29
19259;BME280;9763;48.780;9.212;2023-07-29T17:12:33;97765.34;;;30.03;53.09
19259;BME280;9763;48.780;9.212;2023-07-29T17:15:56;97778.13;;;29.85;53.73
19259;BME280;9763;48.780;9.212;2023-07-29T17:19:22;97788.44;;;29.76;53.34
19259;BME280;9763;48.780;9.212;2023-07-29T17:22:45;97790.09;;;29.65;53.22
19259;BME280;9763;48.780;9.212;2023-07-29T17:26:09;97808.13;;;29.53;53.68
19259;BME280;9763;48.780;9.212;2023-07-29T17:29:32;97823.47;;;29.41;53.51
19259;BME280;9763;48.780;9.212;2023-07-29T17:32:56;97840.75;;;29.22;53.75
19259;BME280;9763;48.780;9.212;2023-07-29T17:36:24;97832.97;;;28.90;53.78
19259;BME280;9763;48.780;9.212;2023-07-29T17:39:48;97843.22;;;28.52;54.32
19259;BME280;9763;48.780;9.212;2023-07-29T17:43:12;97851.53;;;28.14;54.36
19259;BME280;9763;48.780;9.212;2023-07-29T17:46:35;97844.63;;;27.88;55.23
19259;BME280;9763;48.780;9.212;2023-07-29T17:49:59;97854.13;;;27.66;55.73
19259;BME280;9763;48.780;9.212;2023-07-29T17:53:25;97846.06;;;27.47;55.79
19259;BME280;9763;48.780;9.212;2023-07-29T17:56:48;97855.03;;;27.35;55.84
19259;BME280;9763;48.780;9.212;2023-07-29T18:00:13;97860.91;;;27.25;56.37
19259;BME280;9763;48.780;9.212;2023-07-29T18:03:36;97856.88;;;27.16;56.99
19259;BME280;9763;48.780;9.212;2023-07-29T18:07:00;97850.50;;;27.10;56.97
19259;BME280;9763;48.780;9.212;2023-07-29T18:10:26;97847.66;;;27.05;57.16
19259;BME280;9763;48.780;9.212;2023-07-29T18:13:50;97861.72;;;27.01;57.55
19259;BME280;9763;48.780;9.212;2023-07-29T18:17:13;97859.69;;;26.96;57.49
19259;BME280;9763;48.780;9.212;2023-07-29T18:20:37;97863.63;;;26.87;57.92
19259;BME280;9763;48.780;9.212;2023-07-29T18:24:01;97864.72;;;26.79;58.47
19259;BME280;9763;48.780;9.212;2023-07-29T18:27:26;97867.44;;;26.73;58.53
19259;BME280;9763;48.780;9.212;2023-07-29T18:30:49;97870.16;;;26.66;58.23
19259;BME280;9763;48.780;9.212;2023-07-29T18:34:13;97877.78;;;26.63;58.33